createdAt,value
2019-01-21T00:00:33.002Z,19.77
2019-01-21T00:03:01.942Z,18.77
2019-01-21T00:05:30.788Z,18.20
2019-01-21T00:07:59.630Z,19.80
2019-01-21T00:10:28.496Z,19.00
2019-01-21T00:12:57.367Z,18.98
2019-01-21T00:15:26.261Z,19.20
2019-01-21T00:17:55.039Z,19.40
2019-01-21T00:20:23.835Z,19.37
2019-01-21T00:22:52.619Z,20.05
2019-01-21T00:25:21.410Z,19.45
2019-01-21T00:27:50.302Z,19.75
2019-01-21T00:30:19.138Z,19.95
2019-01-21T00:32:48.008Z,20.08
2019-01-21T00:35:16.824Z,20.43
2019-01-21T00:37:45.613Z,19.82
2019-01-21T00:40:16.781Z,18.57
2019-01-21T00:42:45.571Z,19.65
2019-01-21T00:45:14.371Z,18.70
2019-01-21T00:47:43.180Z,19.55
2019-01-21T00:50:13.290Z,19.10
2019-01-21T00:52:42.108Z,19.32
2019-01-21T00:55:12.815Z,19.17
2019-01-21T00:57:42.603Z,19.23
2019-01-21T01:00:14.645Z,18.95
2019-01-21T01:02:43.525Z,19.10
2019-01-21T01:05:12.393Z,18.60
2019-01-21T01:07:41.268Z,19.67
2019-01-21T01:10:12.034Z,18.65
2019-01-21T01:12:40.838Z,19.17
2019-01-21T01:15:11.924Z,18.75
2019-01-21T01:17:40.746Z,18.75
2019-01-21T01:20:12.635Z,19.70
2019-01-21T01:22:44.924Z,17.98
2019-01-21T01:25:13.773Z,19.45
2019-01-21T01:27:42.602Z,17.92
2019-01-21T01:30:14.253Z,19.10
2019-01-21T01:32:43.138Z,19.60
2019-01-21T01:35:13.395Z,17.87
2019-01-21T01:37:42.698Z,19.30
2019-01-21T01:40:16.220Z,19.75
2019-01-21T01:42:46.693Z,18.60
2019-01-21T01:45:18.851Z,19.23
2019-01-21T01:47:47.728Z,18.25
2019-01-21T01:50:16.636Z,18.80
2019-01-21T01:52:45.513Z,18.90
2019-01-21T01:55:14.389Z,18.87
2019-01-21T01:57:43.293Z,18.95
2019-01-21T02:00:14.399Z,19.15
2019-01-21T02:02:43.323Z,19.55
2019-01-21T02:05:12.158Z,19.23
2019-01-21T02:07:40.939Z,19.35
2019-01-21T02:10:11.867Z,20.00
2019-01-21T02:12:40.930Z,20.52
2019-01-21T02:15:15.451Z,20.77
2019-01-21T02:17:44.295Z,18.95
2019-01-21T02:20:16.281Z,19.75
2019-01-21T02:22:47.670Z,19.57
2019-01-21T02:25:17.025Z,20.15
2019-01-21T02:28:05.422Z,20.35
2019-01-21T02:30:43.248Z,20.32
2019-01-21T02:33:21.491Z,19.10
2019-01-21T02:35:56.232Z,19.77
2019-01-21T02:38:40.120Z,20.02
2019-01-21T02:41:14.883Z,20.37
2019-01-21T02:43:55.696Z,19.65
2019-01-21T02:46:27.838Z,19.95
2019-01-21T02:49:02.668Z,19.98
2019-01-21T02:51:37.539Z,20.48
2019-01-21T02:54:18.191Z,20.48
2019-01-21T02:56:50.495Z,20.08
2019-01-21T02:59:31.093Z,20.23
2019-01-21T03:02:17.900Z,20.97
2019-01-21T03:05:04.835Z,20.15
2019-01-21T03:07:37.024Z,20.32
2019-01-21T03:10:35.805Z,21.30
2019-01-21T03:13:13.836Z,21.35
2019-01-21T03:15:45.955Z,20.10
2019-01-21T03:18:24.106Z,21.00
2019-01-21T03:21:08.142Z,20.55
2019-01-21T03:23:59.734Z,20.55
2019-01-21T03:26:31.851Z,20.97
2019-01-21T03:29:09.707Z,21.02
2019-01-21T03:32:10.699Z,20.15
2019-01-21T03:34:48.609Z,21.62
2019-01-21T03:37:49.171Z,20.65
2019-01-21T03:40:44.443Z,20.90
2019-01-21T03:43:19.756Z,20.77
2019-01-21T03:46:10.997Z,20.43
2019-01-21T03:48:41.228Z,20.90
2019-01-21T03:51:29.714Z,20.97
2019-01-21T03:54:01.859Z,21.60
2019-01-21T03:56:34.014Z,21.23
2019-01-21T03:59:11.922Z,21.00
2019-01-21T04:01:44.075Z,21.10
2019-01-21T04:04:49.163Z,20.23
2019-01-21T04:07:24.096Z,20.37
2019-01-21T04:10:05.267Z,21.50
2019-01-21T04:12:40.269Z,19.62
2019-01-21T04:15:30.165Z,20.72
2019-01-21T04:18:08.051Z,20.25
2019-01-21T04:20:56.713Z,19.95
2019-01-21T04:23:40.833Z,19.42
2019-01-21T04:26:32.269Z,21.02
2019-01-21T04:29:09.912Z,20.97
2019-01-21T04:31:47.759Z,20.50
2019-01-21T04:34:25.363Z,20.92
2019-01-21T04:36:57.505Z,20.60
2019-01-21T04:39:32.081Z,20.88
2019-01-21T04:42:37.063Z,19.75
2019-01-21T04:45:23.917Z,19.98
2019-01-21T04:48:07.339Z,20.08
2019-01-21T04:50:48.136Z,21.15
2019-01-21T04:53:40.970Z,20.62
2019-01-21T04:56:39.968Z,20.68
2019-01-21T04:59:33.793Z,20.37
2019-01-21T05:02:25.350Z,20.23
2019-01-21T05:05:13.841Z,20.82
2019-01-21T05:08:06.699Z,20.08
2019-01-21T05:10:38.745Z,20.43
2019-01-21T05:13:10.918Z,19.92
2019-01-21T05:15:57.763Z,19.12
2019-01-21T05:18:47.934Z,20.45
2019-01-21T05:21:31.639Z,20.27
2019-01-21T05:24:32.157Z,19.27
2019-01-21T05:27:13.072Z,19.90
2019-01-21T05:29:45.584Z,19.25
2019-01-21T05:32:44.259Z,20.08
2019-01-21T05:35:31.440Z,19.25
2019-01-21T05:38:12.878Z,18.85
2019-01-21T05:41:12.280Z,19.00
2019-01-21T05:43:53.039Z,19.48
2019-01-21T05:46:41.294Z,19.02
2019-01-21T05:49:28.519Z,19.17
2019-01-21T05:52:09.643Z,20.57
2019-01-21T05:54:44.167Z,20.10
2019-01-21T05:57:24.984Z,19.10
2019-01-21T06:00:05.814Z,19.45
2019-01-21T06:02:43.510Z,18.75
2019-01-21T06:05:15.622Z,20.25
2019-01-21T06:07:53.518Z,19.77
2019-01-21T06:10:34.489Z,19.98
2019-01-21T06:13:06.538Z,20.02
2019-01-21T06:15:38.590Z,19.17
2019-01-21T06:18:25.623Z,19.52
2019-01-21T06:21:23.057Z,19.35
2019-01-21T06:23:57.628Z,20.00
2019-01-21T06:26:32.394Z,19.50
2019-01-21T06:29:04.638Z,21.27
2019-01-21T06:31:45.517Z,20.48
2019-01-21T06:34:23.123Z,20.05
2019-01-21T06:37:13.273Z,20.08
2019-01-21T06:40:12.656Z,21.15
2019-01-21T06:42:59.346Z,19.42
2019-01-21T06:45:50.829Z,18.95
2019-01-21T06:48:28.769Z,18.73
2019-01-21T06:51:09.596Z,18.90
2019-01-21T06:53:52.973Z,18.48
2019-01-21T06:56:36.753Z,19.17
2019-01-21T06:59:08.810Z,21.52
2019-01-21T07:01:52.859Z,22.82
2019-01-21T07:04:34.414Z,22.93
2019-01-21T07:07:09.130Z,25.82
2019-01-21T07:09:46.907Z,24.63
2019-01-21T07:12:24.665Z,25.17
2019-01-21T07:15:08.776Z,24.18
2019-01-21T07:18:06.194Z,25.48
2019-01-21T07:20:40.768Z,23.27
2019-01-21T07:23:21.753Z,23.57
2019-01-21T07:25:56.563Z,22.73
2019-01-21T07:28:31.320Z,24.40
2019-01-21T07:31:24.510Z,23.92
2019-01-21T07:34:14.253Z,23.40
2019-01-21T07:36:49.187Z,23.07
2019-01-21T07:39:42.230Z,23.85
2019-01-21T07:42:30.915Z,23.70
2019-01-21T07:45:17.933Z,22.65
2019-01-21T07:47:55.702Z,23.45
2019-01-21T07:50:36.867Z,23.15
2019-01-21T07:53:17.762Z,23.27
2019-01-21T07:55:55.851Z,23.20
2019-01-21T07:58:36.414Z,22.17
2019-01-21T08:01:11.295Z,22.15
2019-01-21T08:03:58.226Z,22.10
2019-01-21T08:06:33.316Z,21.85
2019-01-21T08:09:10.789Z,21.27
2019-01-21T08:11:57.819Z,22.13
2019-01-21T08:14:35.374Z,22.58
2019-01-21T08:17:22.335Z,20.80
2019-01-21T08:20:00.018Z,21.02
2019-01-21T08:22:40.796Z,22.10
2019-01-21T08:25:27.619Z,21.93
2019-01-21T08:28:05.894Z,22.98
2019-01-21T08:30:52.894Z,21.95
2019-01-21T08:33:58.670Z,21.40
2019-01-21T08:36:42.625Z,21.30
2019-01-21T08:39:23.204Z,21.37
2019-01-21T08:42:09.620Z,20.30
2019-01-21T08:45:04.087Z,21.12
2019-01-21T08:47:45.054Z,21.93
2019-01-21T08:50:26.138Z,21.15
2019-01-21T08:53:03.997Z,20.70
2019-01-21T08:55:45.113Z,20.92
2019-01-21T08:58:37.953Z,20.70
2019-01-21T09:01:10.000Z,21.40
2019-01-21T09:03:57.144Z,20.35
2019-01-21T09:06:48.162Z,20.48
2019-01-21T09:09:43.973Z,20.82
2019-01-21T09:12:24.885Z,20.37
2019-01-21T09:15:02.712Z,21.55
2019-01-21T09:18:06.267Z,19.90
2019-01-21T09:20:56.396Z,20.15
2019-01-21T09:23:30.941Z,19.57
2019-01-21T09:26:27.103Z,22.10
2019-01-21T09:29:13.977Z,25.60
2019-01-21T09:32:10.154Z,26.35
2019-01-21T09:34:50.849Z,25.37
2019-01-21T09:37:37.851Z,25.17
2019-01-21T09:40:24.695Z,24.43
2019-01-21T09:43:08.557Z,23.55
2019-01-21T09:45:40.596Z,25.20
2019-01-21T09:48:08.507Z,24.27
2019-01-21T09:50:37.402Z,24.52
2019-01-21T09:53:06.677Z,24.47
2019-01-21T09:55:35.635Z,25.02
2019-01-21T09:58:07.001Z,25.52
2019-01-21T10:00:35.805Z,24.32
2019-01-21T10:03:05.377Z,23.50
2019-01-21T10:05:35.200Z,23.77
2019-01-21T10:08:19.179Z,24.07
2019-01-21T10:11:03.664Z,23.65
2019-01-21T10:13:55.084Z,23.83
2019-01-21T10:16:32.874Z,21.97
2019-01-21T10:19:28.859Z,22.15
2019-01-21T10:22:19.168Z,22.75
2019-01-21T10:25:08.825Z,23.18
2019-01-21T10:27:43.548Z,21.87
2019-01-21T10:30:33.746Z,21.23
2019-01-21T10:33:14.549Z,22.15
2019-01-21T10:36:13.921Z,22.15
2019-01-21T10:39:01.180Z,21.82
2019-01-21T10:41:49.737Z,22.10
2019-01-21T10:44:24.436Z,22.65
2019-01-21T10:47:02.140Z,23.47
2019-01-21T10:49:45.776Z,21.97
2019-01-21T10:52:20.493Z,21.55
2019-01-21T10:55:04.454Z,21.40
2019-01-21T10:57:54.277Z,21.30
2019-01-21T11:00:32.224Z,22.13
2019-01-21T11:03:10.059Z,22.02
2019-01-21T11:05:51.030Z,21.77
2019-01-21T11:08:46.961Z,22.58
2019-01-21T11:11:34.009Z,21.42
2019-01-21T11:14:17.593Z,20.57
2019-01-21T11:16:55.207Z,22.07
2019-01-21T11:19:55.893Z,21.73
2019-01-21T11:22:37.218Z,21.82
2019-01-21T11:25:18.051Z,22.48
2019-01-21T11:27:50.102Z,21.95
2019-01-21T11:30:31.096Z,20.92
2019-01-21T11:33:14.466Z,20.92
2019-01-21T11:35:49.289Z,20.17
2019-01-21T11:38:42.413Z,20.40
2019-01-21T11:41:20.165Z,22.15
2019-01-21T11:44:06.390Z,20.12
2019-01-21T11:46:41.530Z,21.07
2019-01-21T11:49:28.092Z,20.32
2019-01-21T11:52:12.218Z,20.12
2019-01-21T11:54:59.162Z,19.42
2019-01-21T11:57:49.038Z,21.48
2019-01-21T12:00:32.804Z,22.27
2019-01-21T12:03:32.024Z,22.73
2019-01-21T12:06:01.955Z,23.40
2019-01-21T12:08:54.835Z,24.70
2019-01-21T12:11:26.900Z,27.07
2019-01-21T12:14:16.668Z,26.65
2019-01-21T12:17:04.874Z,26.97
2019-01-21T12:19:45.900Z,27.58
2019-01-21T12:22:39.037Z,25.50
2019-01-21T12:25:13.946Z,28.17
2019-01-21T12:27:46.241Z,30.00
2019-01-21T12:30:42.389Z,28.92
2019-01-21T12:33:25.651Z,26.97
2019-01-21T12:36:03.317Z,26.60
2019-01-21T12:38:51.855Z,24.47
2019-01-21T12:41:38.787Z,24.07
2019-01-21T12:44:25.937Z,23.65
2019-01-21T12:47:14.319Z,22.98
2019-01-21T12:50:23.917Z,21.42
2019-01-21T12:53:02.273Z,21.45
2019-01-21T12:55:43.561Z,20.95
2019-01-21T12:58:27.429Z,19.48
2019-01-21T13:01:08.039Z,19.80
2019-01-21T13:03:54.673Z,19.95
2019-01-21T13:06:46.310Z,19.77
2019-01-21T13:09:36.221Z,18.02
2019-01-21T13:12:20.926Z,19.35
2019-01-21T13:14:58.729Z,18.42
2019-01-21T13:17:33.861Z,17.75
2019-01-21T13:20:11.458Z,17.15
2019-01-21T13:22:51.439Z,17.55
2019-01-21T13:25:37.463Z,17.60
2019-01-21T13:28:28.779Z,16.87
2019-01-21T13:31:26.472Z,16.82
2019-01-21T13:34:17.279Z,16.65
2019-01-21T13:37:07.521Z,17.57
2019-01-21T13:39:58.632Z,17.27
2019-01-21T13:42:33.798Z,16.75
2019-01-21T13:45:05.889Z,16.73
2019-01-21T13:47:49.462Z,15.98
2019-01-21T13:50:37.291Z,15.85
2019-01-21T13:53:25.701Z,17.25
2019-01-21T13:56:03.368Z,16.27
2019-01-21T13:58:57.611Z,15.90
2019-01-21T14:01:38.550Z,15.93
2019-01-21T14:04:27.275Z,16.32
2019-01-21T14:07:07.500Z,17.77
2019-01-21T14:09:48.088Z,17.77
2019-01-21T14:12:25.963Z,17.30
2019-01-21T14:15:12.905Z,19.25
2019-01-21T14:18:06.168Z,19.40
2019-01-21T14:20:44.008Z,20.12
2019-01-21T14:23:34.261Z,19.48
2019-01-21T14:26:30.163Z,18.60
2019-01-21T14:29:20.465Z,18.80
2019-01-21T14:31:57.991Z,18.77
2019-01-21T14:34:32.906Z,18.90
2019-01-21T14:37:19.537Z,18.60
2019-01-21T14:39:51.648Z,18.52
2019-01-21T14:42:29.366Z,18.35
2019-01-21T14:45:16.025Z,16.77
2019-01-21T14:48:07.695Z,18.35
2019-01-21T14:50:50.386Z,17.52
2019-01-21T14:53:22.273Z,18.15
2019-01-21T14:56:00.039Z,18.20
2019-01-21T14:58:37.850Z,18.82
2019-01-21T15:01:12.794Z,17.35
2019-01-21T15:04:02.922Z,18.07
2019-01-21T15:06:43.889Z,17.98
2019-01-21T15:09:21.740Z,17.35
2019-01-21T15:12:16.471Z,18.05
2019-01-21T15:14:51.135Z,17.30
2019-01-21T15:17:31.838Z,17.90
2019-01-21T15:20:00.712Z,18.42
2019-01-21T15:22:38.753Z,17.87
2019-01-21T15:25:30.614Z,17.67
2019-01-21T15:28:17.828Z,17.67
2019-01-21T15:31:10.963Z,17.80
2019-01-21T15:34:07.268Z,17.85
2019-01-21T15:36:45.284Z,18.25
2019-01-21T15:39:38.568Z,17.77
2019-01-21T15:42:27.676Z,17.37
2019-01-21T15:45:14.495Z,18.12
2019-01-21T15:47:46.612Z,17.90
2019-01-21T15:50:33.904Z,18.77
2019-01-21T15:53:11.483Z,17.00
2019-01-21T15:55:43.524Z,17.80
2019-01-21T15:58:19.090Z,17.73
2019-01-21T16:00:57.405Z,19.00
2019-01-21T16:03:41.483Z,18.23
2019-01-21T16:06:32.965Z,17.80
2019-01-21T16:09:30.568Z,17.52
2019-01-21T16:12:20.301Z,17.77
2019-01-21T16:14:52.388Z,19.73
2019-01-21T16:17:26.910Z,18.75
2019-01-21T16:19:55.778Z,18.45
2019-01-21T16:22:48.600Z,17.87
2019-01-21T16:25:35.839Z,19.70
2019-01-21T16:28:19.230Z,19.05
2019-01-21T16:30:51.359Z,18.23
2019-01-21T16:33:56.853Z,17.82
2019-01-21T16:36:31.460Z,18.23
2019-01-21T16:39:15.887Z,18.90
2019-01-21T16:41:50.862Z,18.70
2019-01-21T16:44:19.689Z,18.15
2019-01-21T16:46:48.563Z,19.00
2019-01-21T16:49:17.363Z,20.02
2019-01-21T16:51:46.179Z,19.32
2019-01-21T16:54:14.976Z,19.95
2019-01-21T16:56:43.777Z,19.57
2019-01-21T16:59:12.608Z,20.12
2019-01-21T17:01:41.439Z,21.10
2019-01-21T17:04:10.289Z,20.57
2019-01-21T17:06:39.595Z,19.25
2019-01-21T17:09:10.289Z,19.45
2019-01-21T17:11:39.152Z,20.30
2019-01-21T17:14:09.577Z,19.45
2019-01-21T17:16:38.476Z,18.23
2019-01-21T17:19:07.502Z,19.05
2019-01-21T17:21:36.797Z,18.48
2019-01-21T17:24:05.709Z,19.27
2019-01-21T17:26:34.500Z,20.15
2019-01-21T17:29:03.355Z,19.17
2019-01-21T17:31:32.214Z,18.45
2019-01-21T17:34:00.997Z,19.25
2019-01-21T17:36:29.823Z,17.45
2019-01-21T17:38:58.694Z,18.48
2019-01-21T17:41:27.485Z,18.85
2019-01-21T17:43:56.350Z,18.35
2019-01-21T17:46:25.258Z,19.07
2019-01-21T17:48:56.940Z,18.70
2019-01-21T17:51:33.497Z,18.75
2019-01-21T17:53:57.742Z,18.62
2019-01-21T17:56:26.541Z,18.30
2019-01-21T17:58:55.461Z,18.57
2019-01-21T18:01:24.498Z,17.02
2019-01-21T18:03:53.381Z,17.25
2019-01-21T18:06:22.281Z,18.12
2019-01-21T18:08:51.155Z,17.42
2019-01-21T18:11:19.958Z,17.35
2019-01-21T18:13:48.902Z,18.10
2019-01-21T18:16:17.708Z,17.90
2019-01-21T18:18:46.529Z,18.35
2019-01-21T18:21:15.327Z,18.77
2019-01-21T18:23:44.203Z,18.27
2019-01-21T18:26:13.000Z,18.40
2019-01-21T18:28:41.957Z,18.15
2019-01-21T18:31:10.783Z,17.57
2019-01-21T18:33:39.580Z,16.62
2019-01-21T18:36:08.358Z,17.70
2019-01-21T18:38:37.150Z,17.27
2019-01-21T18:41:05.953Z,18.20
2019-01-21T18:43:34.765Z,16.77
2019-01-21T18:46:03.618Z,18.10
2019-01-21T18:48:32.438Z,18.15
2019-01-21T18:51:01.304Z,17.32
2019-01-21T18:53:30.238Z,19.27
2019-01-21T18:55:59.205Z,17.62
2019-01-21T18:58:28.113Z,17.50
2019-01-21T19:00:56.986Z,17.30
2019-01-21T19:03:25.777Z,18.23
2019-01-21T19:05:54.559Z,17.48
2019-01-21T19:08:23.632Z,17.48
2019-01-21T19:10:52.478Z,16.75
2019-01-21T19:13:21.296Z,17.62
2019-01-21T19:15:50.315Z,17.12
2019-01-21T19:18:19.190Z,16.85
2019-01-21T19:20:47.987Z,17.50
2019-01-21T19:23:16.831Z,18.12
2019-01-21T19:25:45.672Z,17.80
2019-01-21T19:28:14.536Z,17.70
2019-01-21T19:30:43.343Z,17.50
2019-01-21T19:33:12.146Z,17.70
2019-01-21T19:35:40.942Z,17.00
2019-01-21T19:38:09.758Z,18.00
2019-01-21T19:40:38.558Z,18.48
2019-01-21T19:43:07.383Z,17.80
2019-01-21T19:45:36.172Z,17.65
2019-01-21T19:48:04.975Z,18.45
2019-01-21T19:50:33.829Z,18.15
2019-01-21T19:53:02.679Z,17.27
2019-01-21T19:55:37.237Z,17.80
2019-01-21T19:58:07.291Z,17.57
2019-01-21T20:00:36.138Z,17.12
2019-01-21T20:03:05.037Z,17.37
2019-01-21T20:05:33.953Z,16.20
2019-01-21T20:08:02.851Z,16.67
2019-01-21T20:10:31.648Z,16.77
2019-01-21T20:13:00.480Z,16.85
2019-01-21T20:15:29.368Z,17.23
2019-01-21T20:17:58.209Z,17.42
2019-01-21T20:20:30.997Z,15.85
2019-01-21T20:22:59.866Z,17.87
2019-01-21T20:25:28.730Z,17.17
2019-01-21T20:27:57.567Z,17.30
2019-01-21T20:30:26.450Z,17.23
2019-01-21T20:32:55.339Z,16.97
2019-01-21T20:35:24.218Z,16.37
2019-01-21T20:37:53.070Z,15.85
2019-01-21T20:40:25.125Z,16.45
2019-01-21T20:42:54.009Z,16.57
2019-01-21T20:45:22.864Z,16.32
2019-01-21T20:47:51.657Z,16.73
2019-01-21T20:50:26.220Z,17.32
2019-01-21T20:52:55.101Z,16.12
2019-01-21T20:55:24.159Z,16.30
2019-01-21T20:57:53.017Z,16.60
2019-01-21T21:00:23.924Z,16.17
2019-01-21T21:02:54.301Z,16.23
2019-01-21T21:05:23.248Z,16.17
2019-01-21T21:07:52.203Z,17.27
2019-01-21T21:10:21.126Z,16.37
2019-01-21T21:12:50.083Z,16.42
2019-01-21T21:15:22.514Z,15.95
2019-01-21T21:17:51.595Z,15.48
2019-01-21T21:20:20.399Z,16.00
2019-01-21T21:22:49.290Z,16.23
2019-01-21T21:25:19.728Z,15.70
2019-01-21T21:27:48.619Z,15.45
2019-01-21T21:30:26.037Z,15.53
2019-01-21T21:32:54.905Z,15.65
2019-01-21T21:35:24.713Z,15.45
2019-01-21T21:37:53.576Z,15.88
2019-01-21T21:40:23.195Z,15.78
2019-01-21T21:42:52.094Z,14.47
2019-01-21T21:45:22.095Z,14.33
2019-01-21T21:47:51.460Z,14.75
2019-01-21T21:50:23.497Z,15.23
2019-01-21T21:52:52.554Z,14.58
2019-01-21T21:55:21.428Z,14.95
2019-01-21T21:57:50.375Z,14.07
2019-01-21T22:00:22.306Z,14.50
2019-01-21T22:02:51.172Z,14.65
2019-01-21T22:05:20.258Z,14.55
2019-01-21T22:07:49.122Z,14.15
2019-01-21T22:10:20.501Z,14.45
2019-01-21T22:12:50.663Z,14.58
2019-01-21T22:15:21.176Z,14.33
2019-01-21T22:17:50.031Z,14.15
2019-01-21T22:20:23.206Z,14.85
2019-01-21T22:22:52.162Z,13.95
2019-01-21T22:25:21.486Z,14.00
2019-01-21T22:27:50.351Z,14.70
2019-01-21T22:30:21.873Z,13.98
2019-01-21T22:32:50.719Z,14.00
2019-01-21T22:35:19.925Z,14.15
2019-01-21T22:37:49.205Z,13.70
2019-01-21T22:40:20.002Z,12.58
2019-01-21T22:42:48.882Z,13.13
2019-01-21T22:45:19.186Z,13.30
2019-01-21T22:47:48.049Z,13.70
2019-01-21T22:50:18.079Z,12.53
2019-01-21T22:52:46.985Z,13.30
2019-01-21T22:55:16.409Z,13.32
2019-01-21T22:57:45.281Z,13.30
2019-01-21T23:00:20.342Z,13.22
2019-01-21T23:02:49.388Z,11.70
2019-01-21T23:05:18.271Z,12.55
2019-01-21T23:07:47.120Z,13.30
2019-01-21T23:10:15.996Z,12.68
2019-01-21T23:12:44.882Z,12.00
2019-01-21T23:15:13.747Z,12.95
2019-01-21T23:17:42.679Z,13.22
2019-01-21T23:20:11.595Z,13.00
2019-01-21T23:22:40.634Z,12.43
2019-01-21T23:25:09.494Z,11.63
2019-01-21T23:27:38.999Z,12.25
2019-01-21T23:30:11.148Z,12.60
2019-01-21T23:32:40.013Z,12.13
2019-01-21T23:35:08.891Z,12.93
2019-01-21T23:37:37.792Z,12.07
2019-01-21T23:40:10.026Z,12.63
2019-01-21T23:42:38.913Z,11.73
2019-01-21T23:45:11.334Z,12.58
2019-01-21T23:47:40.386Z,12.28
2019-01-21T23:50:17.048Z,11.75
2019-01-21T23:52:45.935Z,11.83
2019-01-21T23:55:14.790Z,11.90
2019-01-21T23:57:43.648Z,12.43
